Time,TemperatureF,DewpointF,PressureIn,WindDirection,WindDirectionDegrees,WindSpeedMPH,WindSpeedGustMPH,Humidity,HourlyPrecipIn,Conditions,Clouds,dailyrainin,SolarRadiationWatts/m^2,SoftwareType,DateUTC
2013-03-09 02:00:00,36.0,29.0,30.22,NNE,19,1.0,-999.0,74,-99.99,,,-99.99,0.000000,,2013-03-09 08:00:00,
2013-03-09 02:52:00,36.0,29.0,30.22,NNE,19,1.0,-999.0,74,-99.99,,,-99.99,0.000000,,2013-03-09 08:52:00,
2013-03-09 03:00:00,32.0,29.0,30.21,NE,49,1.0,-999.0,86,-99.99,,,-99.99,0.000000,,2013-03-09 09:00:00,
2013-03-09 03:52:00,32.0,29.0,30.21,NE,49,1.0,-999.0,86,-99.99,,,-99.99,0.000000,,2013-03-09 09:52:00,
2013-03-09 04:00:00,32.0,29.0,30.23,NE,47,2.0,-999.0,89,-99.99,,,-99.99,0.000000,,2013-03-09 10:00:00,
2013-03-09 04:52:00,32.0,29.0,30.23,NE,47,2.0,-999.0,89,-99.99,,,-99.99,0.000000,,2013-03-09 10:52:00,
2013-03-09 05:00:00,33.0,31.0,30.25,NE,41,2.0,-999.0,92,-99.99,,,-99.99,0.000000,,2013-03-09 11:00:00,
2013-03-09 05:52:00,33.0,31.0,30.25,NE,41,2.0,-999.0,92,-99.99,,,-99.99,0.000000,,2013-03-09 11:52:00,
2013-03-09 06:00:00,36.0,30.0,30.25,NE,51,2.0,-999.0,77,-99.99,,,-99.99,0.170000,,2013-03-09 12:00:00,
2013-03-09 06:52:00,36.0,30.0,30.25,NE,51,2.0,-999.0,77,-99.99,,,-99.99,0.170000,,2013-03-09 12:52:00,
2013-03-09 07:00:00,35.0,31.0,30.25,NE,53,3.0,-999.0,86,-99.99,,,-99.99,33.360001,,2013-03-09 13:00:00,
2013-03-09 07:52:00,35.0,31.0,30.25,NE,53,3.0,-999.0,86,-99.99,,,-99.99,33.360001,,2013-03-09 13:52:00,
2013-03-09 08:00:00,49.0,29.0,30.27,NE,40,3.0,-999.0,45,-99.99,,,-99.99,240.899994,,2013-03-09 14:00:00,
2013-03-09 08:52:00,49.0,29.0,30.27,NE,40,3.0,-999.0,45,-99.99,,,-99.99,240.899994,,2013-03-09 14:52:00,
2013-03-09 09:00:00,52.0,26.0,30.29,ESE,114,5.0,-999.0,35,-99.99,,,-99.99,271.700012,,2013-03-09 15:00:00,
2013-03-09 09:52:00,52.0,26.0,30.29,ESE,114,5.0,-999.0,35,-99.99,,,-99.99,271.700012,,2013-03-09 15:52:00,
2013-03-09 10:00:00,53.0,25.0,30.28,SE,126,5.0,-999.0,34,-99.99,,,-99.99,178.000000,,2013-03-09 16:00:00,
2013-03-09 10:52:00,53.0,25.0,30.28,SE,126,5.0,-999.0,34,-99.99,,,-99.99,178.000000,,2013-03-09 16:52:00,
2013-03-09 11:00:00,55.0,28.0,30.27,ESE,118,5.0,-999.0,35,-99.99,,,-99.99,225.300003,,2013-03-09 17:00:00,
2013-03-09 11:52:00,55.0,28.0,30.27,ESE,118,5.0,-999.0,35,-99.99,,,-99.99,225.300003,,2013-03-09 17:52:00,
2013-03-09 12:00:00,61.0,30.0,30.23,South,182,4.0,-999.0,31,-99.99,,,-99.99,567.000000,,2013-03-09 18:00:00,
2013-03-09 12:52:00,61.0,30.0,30.23,South,182,4.0,-999.0,31,-99.99,,,-99.99,567.000000,,2013-03-09 18:52:00,
2013-03-09 13:00:00,60.0,31.0,30.22,SSE,158,6.0,-999.0,34,-99.99,,,-99.99,523.599976,,2013-03-09 19:00:00,
2013-03-09 13:52:00,60.0,31.0,30.22,SSE,158,6.0,-999.0,34,-99.99,,,-99.99,523.599976,,2013-03-09 19:52:00,
2013-03-09 14:00:00,60.0,31.0,30.20,ESE,115,5.0,-999.0,33,-99.99,,,-99.99,296.700012,,2013-03-09 20:00:00,
2013-03-09 14:52:00,60.0,31.0,30.20,ESE,115,5.0,-999.0,33,-99.99,,,-99.99,296.700012,,2013-03-09 20:52:00,
2013-03-09 15:00:00,63.0,31.0,30.18,SE,124,7.0,-999.0,30,-99.99,,,-99.99,352.500000,,2013-03-09 21:00:00,
2013-03-09 15:52:00,63.0,31.0,30.18,SE,124,7.0,-999.0,30,-99.99,,,-99.99,352.500000,,2013-03-09 21:52:00,
2013-03-09 16:00:00,61.0,31.0,30.17,ESE,123,7.0,-999.0,32,-99.99,,,-99.99,356.299988,,2013-03-09 22:00:00,
2013-03-09 16:52:00,61.0,31.0,30.17,ESE,123,7.0,-999.0,32,-99.99,,,-99.99,356.299988,,2013-03-09 22:52:00,
2013-03-09 17:00:00,61.0,31.0,30.16,SE,130,5.0,-999.0,32,-99.99,,,-99.99,118.599998,,2013-03-09 23:00:00,
2013-03-09 17:52:00,61.0,31.0,30.16,SE,130,5.0,-999.0,32,-99.99,,,-99.99,118.599998,,2013-03-09 23:52:00,
2013-03-09 18:00:00,59.0,30.0,30.16,ESE,108,4.0,-999.0,34,-99.99,,,-99.99,30.969999,,2013-03-10 00:00:00,
2013-03-09 18:52:00,59.0,30.0,30.16,ESE,108,4.0,-999.0,34,-99.99,,,-99.99,30.969999,,2013-03-10 00:52:00,
2013-03-09 19:00:00,58.0,30.0,30.16,East,92,4.0,-999.0,35,-99.99,,,-99.99,0.020000,,2013-03-10 01:00:00,
2013-03-09 19:52:00,58.0,30.0,30.16,East,92,4.0,-999.0,35,-99.99,,,-99.99,0.020000,,2013-03-10 01:52:00,
2013-03-09 20:00:00,57.0,30.0,30.16,East,101,5.0,-999.0,36,-99.99,,,-99.99,0.000000,,2013-03-10 02:00:00,
2013-03-09 20:52:00,57.0,30.0,30.16,East,101,5.0,-999.0,36,-99.99,,,-99.99,0.000000,,2013-03-10 02:52:00,
2013-03-09 21:00:00,57.0,30.0,30.15,ESE,117,5.0,-999.0,36,-99.99,,,-99.99,0.000000,,2013-03-10 03:00:00,
2013-03-09 21:52:00,57.0,30.0,30.15,ESE,117,5.0,-999.0,36,-99.99,,,-99.99,0.000000,,2013-03-10 03:52:00,
2013-03-09 22:00:00,57.0,29.0,30.13,ESE,106,6.0,-999.0,35,-99.99,,,-99.99,0.000000,,2013-03-10 04:00:00,
2013-03-09 22:52:00,57.0,29.0,30.13,ESE,106,6.0,-999.0,35,-99.99,,,-99.99,0.000000,,2013-03-10 04:52:00,
2013-03-09 23:00:00,54.0,30.0,30.12,ENE,74,4.0,-999.0,39,-99.99,,,-99.99,0.000000,,2013-03-10 05:00:00,
2013-03-09 23:52:00,54.0,30.0,30.12,ENE,74,4.0,-999.0,39,-99.99,,,-99.99,0.000000,,2013-03-10 05:52:00,